createdAt,value
2023-04-13T00:01:15.871Z,12.85
2023-04-13T00:03:43.088Z,12.25
2023-04-13T00:06:11.236Z,12.60
2023-04-13T00:08:38.818Z,13.04
2023-04-13T00:11:07.731Z,13.12
2023-04-13T00:13:40.972Z,13.08
2023-04-13T00:16:10.952Z,13.10
2023-04-13T00:18:38.222Z,12.96
2023-04-13T00:21:05.961Z,12.67
2023-04-13T00:23:35.990Z,12.65
2023-04-13T00:26:03.132Z,12.71
2023-04-13T00:28:30.339Z,12.78
2023-04-13T00:30:57.662Z,12.57
2023-04-13T00:33:27.055Z,12.72
2023-04-13T00:35:54.105Z,12.49
2023-04-13T00:38:23.987Z,12.30
2023-04-13T00:40:51.063Z,11.80
2023-04-13T00:43:18.181Z,12.18
2023-04-13T00:45:45.388Z,11.31
2023-04-13T00:48:13.519Z,11.89
2023-04-13T00:50:42.445Z,11.57
2023-04-13T00:53:13.250Z,11.89
2023-04-13T00:55:42.700Z,12.23
2023-04-13T00:58:10.576Z,12.45
2023-04-13T01:00:42.730Z,12.46
2023-04-13T01:03:10.254Z,12.36
2023-04-13T01:05:54.049Z,12.14
2023-04-13T01:09:08.839Z,12.43
2023-04-13T01:12:08.266Z,12.21
2023-04-13T01:14:49.233Z,12.60
2023-04-13T01:17:23.940Z,12.64
2023-04-13T01:20:11.995Z,12.70
2023-04-13T01:23:01.412Z,12.45
2023-04-13T01:25:38.254Z,12.60
2023-04-13T01:28:13.538Z,12.49
2023-04-13T01:30:42.468Z,12.41
2023-04-13T01:33:11.771Z,12.75
2023-04-13T01:35:39.743Z,12.72
2023-04-13T01:38:08.659Z,12.66
2023-04-13T01:40:40.924Z,12.55
2023-04-13T01:43:08.766Z,12.49
2023-04-13T01:45:56.876Z,12.30
2023-04-13T01:48:49.399Z,12.24
2023-04-13T01:51:32.272Z,12.35
2023-04-13T01:54:17.864Z,12.10
2023-04-13T01:56:45.576Z,12.15
2023-04-13T01:59:13.162Z,12.39
2023-04-13T02:01:41.048Z,12.42
2023-04-13T02:04:08.379Z,12.46
2023-04-13T02:06:40.899Z,12.53
2023-04-13T02:09:08.289Z,12.57
2023-04-13T02:11:36.653Z,12.65
2023-04-13T02:14:04.823Z,12.23
2023-04-13T02:16:32.185Z,12.55
2023-04-13T02:19:00.065Z,12.41
2023-04-13T02:21:27.288Z,12.15
2023-04-13T02:23:54.490Z,11.99
2023-04-13T02:26:21.552Z,11.43
2023-04-13T02:28:51.254Z,12.01
2023-04-13T02:31:20.030Z,12.32
2023-04-13T02:33:47.675Z,11.98
2023-04-13T02:36:17.539Z,12.01
2023-04-13T02:38:45.314Z,12.15
2023-04-13T02:41:12.566Z,11.82
2023-04-13T02:43:39.707Z,12.16
2023-04-13T02:46:07.222Z,12.19
2023-04-13T02:48:34.316Z,12.32
2023-04-13T02:51:02.334Z,12.33
2023-04-13T02:53:29.450Z,12.29
2023-04-13T02:55:56.651Z,12.20
2023-04-13T02:58:24.030Z,11.89
2023-04-13T03:00:51.353Z,11.92
2023-04-13T03:03:19.081Z,11.95
2023-04-13T03:05:47.179Z,11.74
2023-04-13T03:08:14.447Z,11.39
2023-04-13T03:10:41.549Z,11.87
2023-04-13T03:13:08.761Z,11.73
2023-04-13T03:15:37.334Z,11.08
2023-04-13T03:18:04.554Z,11.36
2023-04-13T03:20:31.830Z,10.98
2023-04-13T03:22:59.909Z,11.30
2023-04-13T03:25:28.326Z,11.54
2023-04-13T03:27:56.791Z,11.52
2023-04-13T03:30:24.018Z,11.30
2023-04-13T03:32:52.313Z,11.44
2023-04-13T03:35:19.462Z,11.52
2023-04-13T03:37:46.630Z,11.56
2023-04-13T03:40:14.277Z,11.44
2023-04-13T03:42:41.456Z,11.41
2023-04-13T03:45:10.525Z,11.46
2023-04-13T03:47:38.972Z,11.47
2023-04-13T03:50:10.082Z,11.51
2023-04-13T03:52:37.228Z,11.20
2023-04-13T03:55:04.941Z,11.29
2023-04-13T03:57:32.108Z,11.37
2023-04-13T03:59:59.204Z,11.21
2023-04-13T04:02:26.482Z,11.19
2023-04-13T04:04:53.769Z,11.30
2023-04-13T04:07:23.268Z,11.25
2023-04-13T04:10:18.057Z,11.04
2023-04-13T04:12:45.701Z,11.30
2023-04-13T04:15:12.946Z,10.98
2023-04-13T04:17:40.215Z,11.14
2023-04-13T04:20:08.748Z,11.14
2023-04-13T04:22:36.553Z,10.95
2023-04-13T04:25:04.489Z,11.20
2023-04-13T04:27:37.801Z,11.17
2023-04-13T04:30:06.818Z,11.21
2023-04-13T04:32:34.159Z,11.17
2023-04-13T04:35:04.029Z,11.24
2023-04-13T04:37:37.405Z,11.23
2023-04-13T04:40:09.657Z,11.01
2023-04-13T04:42:39.653Z,11.13
2023-04-13T04:45:08.277Z,11.25
2023-04-13T04:47:42.018Z,11.29
2023-04-13T04:50:14.372Z,11.40
2023-04-13T04:52:42.180Z,11.31
2023-04-13T04:55:10.184Z,11.25
2023-04-13T04:57:37.814Z,11.01
2023-04-13T05:00:15.411Z,10.96
2023-04-13T05:02:44.235Z,10.91
2023-04-13T05:05:12.075Z,10.85
2023-04-13T05:07:39.387Z,10.75
2023-04-13T05:10:12.814Z,10.71
2023-04-13T05:12:39.918Z,10.64
2023-04-13T05:15:08.985Z,10.32
2023-04-13T05:17:36.503Z,9.79
2023-04-13T05:20:07.852Z,9.66
2023-04-13T05:22:35.099Z,9.48
2023-04-13T05:25:02.465Z,9.93
2023-04-13T05:27:29.641Z,10.60
2023-04-13T05:29:57.529Z,10.40
2023-04-13T05:32:24.669Z,10.35
2023-04-13T05:34:51.726Z,10.63
2023-04-13T05:37:21.403Z,10.97
2023-04-13T05:39:48.513Z,10.73
2023-04-13T05:42:16.403Z,10.29
2023-04-13T05:44:43.485Z,10.51
2023-04-13T05:47:10.556Z,10.47
2023-04-13T05:49:37.676Z,10.64
2023-04-13T05:52:07.758Z,11.17
2023-04-13T05:54:36.348Z,11.10
2023-04-13T05:57:03.736Z,11.05
2023-04-13T05:59:31.106Z,10.39
2023-04-13T06:02:00.100Z,10.87
2023-04-13T06:04:27.633Z,11.27
2023-04-13T06:06:55.893Z,11.45
2023-04-13T06:09:27.240Z,11.27
2023-04-13T06:11:54.470Z,11.73
2023-04-13T06:14:22.295Z,11.82
2023-04-13T06:16:49.376Z,11.79
2023-04-13T06:19:17.358Z,11.62
2023-04-13T06:21:44.590Z,11.88
2023-04-13T06:24:11.711Z,11.66
2023-04-13T06:26:39.267Z,12.00
2023-04-13T06:29:06.463Z,12.23
2023-04-13T06:31:33.762Z,12.13
2023-04-13T06:34:02.464Z,12.53
2023-04-13T06:36:29.732Z,12.73
2023-04-13T06:38:57.145Z,12.41
2023-04-13T06:41:24.587Z,12.10
2023-04-13T06:43:52.093Z,12.52
2023-04-13T06:46:20.032Z,12.59
2023-04-13T06:48:49.146Z,12.56
2023-04-13T06:51:16.486Z,12.13
2023-04-13T06:53:43.519Z,12.40
2023-04-13T06:56:13.169Z,12.56
2023-04-13T06:58:42.905Z,12.26
2023-04-13T07:01:12.457Z,12.83
2023-04-13T07:03:42.183Z,12.72
2023-04-13T07:06:09.755Z,12.83
2023-04-13T07:08:36.871Z,13.23
2023-04-13T07:11:03.996Z,13.19
2023-04-13T07:13:31.036Z,12.91
2023-04-13T07:15:58.079Z,13.39
2023-04-13T07:18:26.375Z,13.08
2023-04-13T07:20:53.445Z,13.40
2023-04-13T07:23:20.542Z,13.23
2023-04-13T07:25:47.619Z,13.48
2023-04-13T07:28:14.727Z,13.27
2023-04-13T07:30:45.786Z,13.14
2023-04-13T07:33:13.297Z,12.88
2023-04-13T07:35:40.507Z,13.14
2023-04-13T07:38:07.923Z,13.38
2023-04-13T07:40:38.135Z,13.67
2023-04-13T07:43:05.237Z,13.63
2023-04-13T07:45:32.738Z,13.77
2023-04-13T07:47:59.872Z,13.97
2023-04-13T07:50:27.441Z,13.33
2023-04-13T07:52:57.130Z,14.32
2023-04-13T07:55:27.589Z,14.40
2023-04-13T07:57:55.509Z,14.57
2023-04-13T08:00:22.997Z,14.49
2023-04-13T08:02:50.286Z,14.55
2023-04-13T08:05:17.961Z,13.95
2023-04-13T08:07:46.816Z,14.51
2023-04-13T08:10:13.917Z,14.43
2023-04-13T08:12:43.308Z,14.35
2023-04-13T08:15:17.993Z,14.57
2023-04-13T08:17:45.332Z,14.97
2023-04-13T08:20:13.737Z,14.58
2023-04-13T08:22:40.897Z,14.93
2023-04-13T08:25:08.255Z,15.08
2023-04-13T08:27:35.367Z,15.13
2023-04-13T08:30:03.652Z,15.26
2023-04-13T08:32:30.958Z,15.33
2023-04-13T08:34:58.456Z,15.38
2023-04-13T08:37:28.084Z,15.55
2023-04-13T08:39:59.566Z,15.20
2023-04-13T08:42:28.965Z,15.71
2023-04-13T08:45:01.755Z,15.52
2023-04-13T08:47:29.368Z,15.51
2023-04-13T08:50:01.925Z,15.63
2023-04-13T08:52:29.606Z,15.58
2023-04-13T08:55:02.280Z,15.14
2023-04-13T08:57:31.157Z,15.35
2023-04-13T09:00:01.122Z,15.87
2023-04-13T09:02:37.576Z,15.81
2023-04-13T09:05:16.272Z,15.86
2023-04-13T09:07:53.598Z,15.84
2023-04-13T09:10:26.223Z,15.71
2023-04-13T09:12:53.469Z,15.63
2023-04-13T09:15:21.314Z,16.16
2023-04-13T09:17:50.580Z,15.27
2023-04-13T09:20:23.904Z,16.07
2023-04-13T09:22:53.985Z,16.34
2023-04-13T09:25:30.413Z,16.03
2023-04-13T09:27:59.246Z,16.53
2023-04-13T09:30:27.579Z,16.96
2023-04-13T09:33:10.739Z,16.61
2023-04-13T09:35:38.888Z,16.20
2023-04-13T09:38:07.310Z,16.32
2023-04-13T09:40:38.171Z,16.69
2023-04-13T09:47:14.637Z,16.64
2023-04-13T09:49:43.769Z,15.67
2023-04-13T09:52:24.822Z,16.70
2023-04-13T09:54:58.769Z,16.93
2023-04-13T09:57:32.887Z,17.55
2023-04-13T10:00:16.066Z,16.95
2023-04-13T10:02:45.836Z,17.45
2023-04-13T10:05:13.980Z,17.34
2023-04-13T10:07:48.763Z,16.97
2023-04-13T10:10:16.943Z,16.31
2023-04-13T10:12:53.400Z,16.42
2023-04-13T10:16:06.576Z,16.75
2023-04-13T10:19:01.857Z,17.40
2023-04-13T10:21:39.919Z,17.39
2023-04-13T10:24:14.358Z,16.74
2023-04-13T10:26:46.654Z,17.83
2023-04-13T10:29:14.821Z,17.99
2023-04-13T10:31:47.989Z,17.49
2023-04-13T10:34:31.847Z,17.60
2023-04-13T10:37:03.695Z,17.73
2023-04-13T10:39:34.465Z,18.14
2023-04-13T10:42:09.566Z,18.23
2023-04-13T10:44:51.401Z,17.24
2023-04-13T10:47:21.723Z,16.33
2023-04-13T10:49:51.254Z,17.96
2023-04-13T10:52:18.449Z,17.66
2023-04-13T10:54:50.258Z,18.07
2023-04-13T10:57:17.671Z,18.43
2023-04-13T10:59:58.797Z,18.62
2023-04-13T11:02:32.347Z,18.48
2023-04-13T11:05:00.898Z,17.60
2023-04-13T11:07:28.691Z,18.25
2023-04-13T11:12:31.707Z,17.73
2023-04-13T11:15:00.897Z,18.26
2023-04-13T11:17:28.249Z,18.63
2023-04-13T11:20:02.453Z,18.32
2023-04-13T11:22:36.377Z,18.27
2023-04-13T11:25:09.095Z,18.64
2023-04-13T11:27:37.703Z,18.43
2023-04-13T11:30:10.911Z,18.35
2023-04-13T11:32:43.516Z,18.46
2023-04-13T11:35:14.744Z,18.62
2023-04-13T11:37:48.649Z,19.07
2023-04-13T11:40:27.759Z,18.90
2023-04-13T11:42:58.262Z,18.90
2023-04-13T11:45:31.929Z,18.86
2023-04-13T11:47:59.764Z,18.42
2023-04-13T11:50:27.909Z,18.60
2023-04-13T11:52:56.831Z,18.71
2023-04-13T11:55:25.537Z,19.27
2023-04-13T11:57:55.636Z,19.55
2023-04-13T12:00:28.067Z,19.58
2023-04-13T12:05:42.988Z,19.81
2023-04-13T12:08:24.580Z,19.95
2023-04-13T12:14:06.448Z,19.40
2023-04-13T12:17:03.219Z,19.41
2023-04-13T12:19:26.654Z,19.07
2023-04-13T12:21:56.694Z,19.71
2023-04-13T12:24:40.222Z,20.22
2023-04-13T12:29:39.406Z,19.64
2023-04-13T12:32:14.887Z,18.24
2023-04-13T12:34:51.435Z,19.19
2023-04-13T12:37:18.531Z,19.83
2023-04-13T12:39:45.607Z,19.99
2023-04-13T12:42:48.250Z,20.69
2023-04-13T12:45:16.834Z,20.44
2023-04-13T12:47:47.136Z,21.35
2023-04-13T12:50:14.973Z,20.45
2023-04-13T12:52:43.456Z,19.98
2023-04-13T12:55:11.456Z,20.02
2023-04-13T12:57:39.908Z,20.56
2023-04-13T13:00:10.860Z,20.68
2023-04-13T13:02:42.131Z,20.68
2023-04-13T13:05:09.684Z,20.79
2023-04-13T13:07:37.047Z,19.87
2023-04-13T13:10:09.630Z,19.75
2023-04-13T13:12:45.656Z,19.98
2023-04-13T13:15:17.507Z,21.18
2023-04-13T13:17:45.410Z,21.56
2023-04-13T13:20:14.629Z,20.34
2023-04-13T13:22:43.462Z,20.48
2023-04-13T13:25:10.972Z,20.57
2023-04-13T13:28:10.373Z,20.33
2023-04-13T13:30:29.048Z,19.75
2023-04-13T13:32:56.584Z,21.14
2023-04-13T13:35:23.955Z,22.39
2023-04-13T13:37:51.348Z,20.71
2023-04-13T13:40:18.675Z,21.13
2023-04-13T13:42:52.093Z,21.50
2023-04-13T13:45:25.545Z,21.75
2023-04-13T13:47:55.253Z,22.76
2023-04-13T13:50:22.541Z,22.72
2023-04-13T13:53:02.166Z,22.79
2023-04-13T13:55:31.727Z,22.46
2023-04-13T13:57:59.301Z,21.99
2023-04-13T14:00:27.846Z,21.25
2023-04-13T14:02:55.105Z,22.48
2023-04-13T14:05:24.060Z,22.49
2023-04-13T14:07:51.701Z,22.42
2023-04-13T14:10:18.987Z,21.61
2023-04-13T14:12:49.587Z,21.47
2023-04-13T14:15:17.564Z,21.36
2023-04-13T14:17:52.832Z,21.62
2023-04-13T14:20:29.619Z,21.84
2023-04-13T14:22:58.140Z,20.96
2023-04-13T14:25:25.451Z,20.94
2023-04-13T14:27:53.052Z,21.69
2023-04-13T14:30:23.674Z,21.97
2023-04-13T14:32:52.260Z,22.99
2023-04-13T14:35:22.761Z,22.61
2023-04-13T14:37:50.064Z,23.21
2023-04-13T14:40:21.027Z,22.59
2023-04-13T14:42:50.895Z,22.14
2023-04-13T14:45:19.773Z,21.79
2023-04-13T14:47:47.188Z,20.96
2023-04-13T14:50:15.447Z,20.95
2023-04-13T14:52:46.746Z,20.72
2023-04-13T14:55:14.943Z,20.60
2023-04-13T14:57:42.221Z,20.75
2023-04-13T15:00:26.609Z,20.72
2023-04-13T15:02:54.806Z,19.56
2023-04-13T15:05:22.275Z,20.53
2023-04-13T15:07:50.727Z,20.97
2023-04-13T15:10:19.169Z,20.70
2023-04-13T15:12:48.076Z,20.26
2023-04-13T15:15:16.852Z,20.41
2023-04-13T15:17:44.182Z,20.68
2023-04-13T15:20:15.403Z,19.68
2023-04-13T15:22:42.459Z,20.57
2023-04-13T15:25:10.082Z,21.02
2023-04-13T15:27:37.235Z,19.69
2023-04-13T15:30:05.072Z,20.08
2023-04-13T15:32:35.170Z,20.44
2023-04-13T15:35:04.251Z,20.59
2023-04-13T15:37:31.427Z,20.38
2023-04-13T15:39:58.559Z,20.29
2023-04-13T15:42:26.186Z,20.20
2023-04-13T15:44:54.737Z,20.18
2023-04-13T15:47:22.702Z,20.74
2023-04-13T15:49:49.961Z,21.29
2023-04-13T15:52:17.202Z,21.35
2023-04-13T15:54:44.282Z,21.28
2023-04-13T15:57:11.583Z,21.08
2023-04-13T15:59:38.742Z,21.46
2023-04-13T16:02:06.189Z,20.99
2023-04-13T16:04:33.513Z,21.15
2023-04-13T16:07:12.756Z,21.71
2023-04-13T16:09:51.222Z,20.79
2023-04-13T16:12:18.597Z,20.53
2023-04-13T16:14:46.012Z,20.24
2023-04-13T16:17:16.987Z,20.41
2023-04-13T16:19:50.610Z,20.38
2023-04-13T16:22:17.899Z,20.43
2023-04-13T16:24:44.976Z,20.21
2023-04-13T16:27:12.087Z,20.36
2023-04-13T16:29:41.649Z,21.28
2023-04-13T16:32:08.967Z,21.80
2023-04-13T16:34:36.169Z,22.24
2023-04-13T16:37:03.388Z,21.96
2023-04-13T16:39:30.464Z,21.09
2023-04-13T16:41:57.541Z,21.04
2023-04-13T16:44:24.600Z,20.43
2023-04-13T16:46:51.713Z,20.29
2023-04-13T16:49:19.142Z,20.14
2023-04-13T16:51:46.266Z,19.91
2023-04-13T16:54:13.926Z,19.54
2023-04-13T16:56:41.192Z,19.55
2023-04-13T16:59:08.247Z,19.39
2023-04-13T17:01:37.153Z,18.84
2023-04-13T17:04:05.968Z,19.02
2023-04-13T17:06:37.981Z,19.22
2023-04-13T17:09:06.167Z,18.99
2023-04-13T17:11:33.424Z,19.04
2023-04-13T17:14:00.958Z,18.84
2023-04-13T17:16:29.419Z,19.03
2023-04-13T17:18:57.239Z,18.92
2023-04-13T17:21:24.641Z,18.66
2023-04-13T17:23:51.724Z,18.46
2023-04-13T17:26:18.990Z,18.51
2023-04-13T17:28:46.494Z,18.54
2023-04-13T17:31:14.393Z,18.49
2023-04-13T17:33:41.536Z,18.35
2023-04-13T17:36:08.673Z,18.19
2023-04-13T17:38:35.840Z,18.07
2023-04-13T17:41:03.029Z,18.03
2023-04-13T17:43:30.158Z,17.97
2023-04-13T17:45:57.298Z,17.83
2023-04-13T17:48:24.508Z,17.66
2023-04-13T17:50:51.621Z,17.17
2023-04-13T17:53:20.808Z,17.11
2023-04-13T17:55:47.904Z,17.04
2023-04-13T17:58:15.040Z,16.99
2023-04-13T18:00:42.256Z,16.73
2023-04-13T18:03:10.836Z,15.77
2023-04-13T18:05:44.575Z,14.95
2023-04-13T18:08:11.716Z,15.45
2023-04-13T18:10:38.777Z,15.93
2023-04-13T18:13:05.832Z,15.95
2023-04-13T18:15:32.937Z,15.14
2023-04-13T18:18:00.031Z,14.46
2023-04-13T18:20:27.089Z,13.58
2023-04-13T18:22:54.160Z,13.02
2023-04-13T18:25:21.364Z,12.70
2023-04-13T18:27:50.866Z,12.49
2023-04-13T18:30:19.073Z,12.35
2023-04-13T18:32:46.849Z,11.84
2023-04-13T18:35:14.134Z,11.38
2023-04-13T18:37:41.237Z,11.62
2023-04-13T18:40:10.371Z,12.27
2023-04-13T18:42:40.534Z,12.36
2023-04-13T18:45:08.484Z,11.97
2023-04-13T18:47:35.606Z,11.75
2023-04-13T18:50:02.915Z,11.48
2023-04-13T18:52:30.031Z,12.34
2023-04-13T18:54:57.092Z,13.18
2023-04-13T18:57:24.230Z,13.62
2023-04-13T18:59:51.599Z,13.86
2023-04-13T19:02:18.793Z,13.55
2023-04-13T19:04:46.040Z,12.63
2023-04-13T19:07:13.139Z,12.41
2023-04-13T19:09:40.436Z,12.21
2023-04-13T19:12:08.098Z,12.57
2023-04-13T19:14:35.213Z,13.12
2023-04-13T19:17:02.350Z,13.47
2023-04-13T19:19:29.517Z,13.29
2023-04-13T19:21:56.641Z,11.65
2023-04-13T19:24:24.305Z,11.51
2023-04-13T19:26:51.449Z,12.41
2023-04-13T19:29:20.918Z,12.38
2023-04-13T19:31:49.709Z,11.82
2023-04-13T19:34:16.878Z,11.90
2023-04-13T19:36:44.360Z,11.78
2023-04-13T19:39:11.485Z,12.57
2023-04-13T19:41:41.279Z,13.09
2023-04-13T19:44:08.971Z,12.90
2023-04-13T19:46:37.012Z,12.75
2023-04-13T19:49:04.264Z,12.94
2023-04-13T19:51:32.752Z,13.25
2023-04-13T19:54:01.911Z,13.58
2023-04-13T19:56:36.324Z,13.74
2023-04-13T19:59:07.005Z,13.42
2023-04-13T20:01:34.697Z,12.73
2023-04-13T20:04:05.235Z,12.09
2023-04-13T20:06:33.303Z,11.68
2023-04-13T20:09:14.354Z,11.85
2023-04-13T20:11:41.788Z,11.97
2023-04-13T20:14:11.447Z,12.76
2023-04-13T20:16:38.806Z,13.24
2023-04-13T20:19:06.917Z,13.46
2023-04-13T20:21:34.288Z,13.45
2023-04-13T20:24:03.097Z,13.58
2023-04-13T20:26:31.525Z,13.38
2023-04-13T20:29:02.249Z,12.32
2023-04-13T20:31:32.152Z,11.42
2023-04-13T20:33:59.518Z,10.96
2023-04-13T20:36:26.984Z,11.25
2023-04-13T20:39:00.126Z,11.31
2023-04-13T20:41:32.280Z,11.81
2023-04-13T20:44:00.485Z,12.12
2023-04-13T20:46:34.734Z,12.26
2023-04-13T20:49:05.619Z,11.59
2023-04-13T20:51:33.627Z,11.46
2023-04-13T20:54:02.434Z,11.88
2023-04-13T20:56:33.173Z,12.50
2023-04-13T20:59:00.847Z,12.76
2023-04-13T21:01:30.089Z,12.73
2023-04-13T21:03:57.323Z,12.28
2023-04-13T21:06:24.623Z,10.60
2023-04-13T21:08:52.835Z,9.97
2023-04-13T21:11:21.219Z,10.01
2023-04-13T21:13:48.344Z,10.27
2023-04-13T21:16:15.461Z,9.77
2023-04-13T21:18:42.646Z,10.57
2023-04-13T21:21:09.787Z,11.20
2023-04-13T21:23:37.457Z,11.48
2023-04-13T21:26:05.604Z,11.09
2023-04-13T21:28:32.788Z,10.51
2023-04-13T21:31:02.531Z,9.95
2023-04-13T21:33:29.605Z,9.93
2023-04-13T21:35:56.701Z,10.18
2023-04-13T21:38:24.005Z,10.90
2023-04-13T21:40:51.341Z,11.30
2023-04-13T21:43:18.499Z,11.36
2023-04-13T21:45:45.572Z,11.66
2023-04-13T21:48:12.872Z,11.71
2023-04-13T21:50:40.423Z,11.32
2023-04-13T21:53:07.491Z,10.28
2023-04-13T21:55:37.236Z,9.53
2023-04-13T21:58:04.304Z,9.22
2023-04-13T22:00:31.380Z,9.64
2023-04-13T22:02:58.506Z,9.51
2023-04-13T22:05:25.661Z,9.42
2023-04-13T22:07:52.718Z,9.38
2023-04-13T22:10:19.926Z,9.79
2023-04-13T22:12:47.117Z,9.70
2023-04-13T22:15:14.395Z,9.64
2023-04-13T22:17:41.735Z,9.18
2023-04-13T22:20:09.710Z,8.66
2023-04-13T22:22:36.988Z,8.30
2023-04-13T22:25:04.268Z,8.05
2023-04-13T22:27:31.520Z,8.29
2023-04-13T22:29:58.576Z,8.54
2023-04-13T22:32:28.598Z,8.83
2023-04-13T22:34:56.786Z,8.80
2023-04-13T22:37:23.922Z,9.04
2023-04-13T22:39:51.041Z,9.82
2023-04-13T22:42:20.348Z,10.29
2023-04-13T22:44:47.393Z,10.47
2023-04-13T22:47:14.461Z,10.54
2023-04-13T22:49:41.628Z,10.24
2023-04-13T22:52:08.778Z,9.45
2023-04-13T22:54:35.884Z,9.73
2023-04-13T22:57:05.591Z,10.27
2023-04-13T22:59:32.785Z,9.22
2023-04-13T23:02:01.568Z,9.98
2023-04-13T23:04:28.950Z,9.38
2023-04-13T23:06:56.127Z,8.20
2023-04-13T23:09:23.238Z,8.05
2023-04-13T23:11:50.492Z,8.78
2023-04-13T23:14:24.502Z,8.78
2023-04-13T23:16:51.713Z,9.32
2023-04-13T23:19:19.497Z,8.81
2023-04-13T23:21:47.052Z,9.28
2023-04-13T23:24:14.126Z,9.74
2023-04-13T23:26:41.362Z,9.80
2023-04-13T23:29:08.484Z,9.82
2023-04-13T23:31:35.886Z,9.47
2023-04-13T23:34:02.942Z,9.53
2023-04-13T23:36:30.977Z,9.70
2023-04-13T23:38:58.217Z,10.06
2023-04-13T23:41:25.388Z,10.31
2023-04-13T23:43:53.387Z,10.53
2023-04-13T23:46:22.399Z,10.50
2023-04-13T23:48:49.593Z,10.45
2023-04-13T23:51:16.680Z,10.14
2023-04-13T23:53:46.297Z,9.91
2023-04-13T23:56:13.380Z,9.76
2023-04-13T23:58:40.554Z,9.65
